Terminal Aerodrome Forecast
Issued by NWS Grand Forks, ND

Home | Current Version | Previous Version | Graphics & Text | Print | Product List | Glossary On
Versions: 1 2 3 4 5 6 7 8 9 10 11 12 13 14 15 16 17 18 19 20
174
FTUS43 KFGF 222320
TAFFAR
TAF
KFAR 222320Z 2300/2324 17018G28KT P6SM BKN050
     FM230600 17015KT P6SM VCTS BKN040CB
     FM230700 16015KT 2SM TSRA OVC025CB
     FM230900 17013KT P6SM -SHRA OVC040
     FM231400 23008KT P6SM VCSH BKN070
     FM231800 26007KT P6SM SCT200=

USA.gov is the U.S. government's official web portal to all federal, state and local government web resources and services.